Tiempo atmosférico en la estación meteorológica de Monreal/Elo, Navarra (585 m.)



Fecha
DESCASC
Temp. máxima en grados centígrados (hora)
DESCASC
Temp. mínima en grados centígrados (hora)
DESCASC
Temp. media en grados centígrados
DESCASC
Racha de viento máxima en m/sg (hora)
DESCASC
Velocidad máxima media en intervalos de 10 minutos(hora)
DESCASC
Precipitaciones diarias en mm
DESCASC
Precipitaciones de 00:00 a 06:00 en mm
DESCASC
Precipitaciones de 06:00 a 12:00 en mm
DESCASC
Precipitaciones de 12:00 a 18:00 en mm
DESCASC
Precipitaciones de 18:00 a 24:00 en mm
DESCASC
20-10-2019 16.8 (00:10) 8.4 (23:20) 12.6 16.39 (05:40) 11.11 (05:20) 9.8 5.8 3.2 0 0.8
19-10-2019 18.2 (13:50) 13.4 (07:50) 15.8 18.06 (22:40) 11.39 (22:40) 0 0 0 0 0
18-10-2019 19.2 (14:30) 13 (06:10) 16.1 10.28 (06:20) 7.22 (06:20) 0.4 0.4 0 0 0
17-10-2019 20.4 (16:00) 11.9 (00:00) 16.1 9.44 (11:30) 7.78 (12:00) 0 0 0 0 0
16-10-2019 19.4 (17:00) 8.1 (00:00) 13.8 11.67 (14:40) 9.17 (14:40) 0 0 0 0 0
15-10-2019 16.7 (16:30) 5.9 (00:00) 11.3 10 (04:40) 6.39 (04:40) 1.8 1.8 0 0 0
14-10-2019 20 (16:30) 9.6 (00:00) 14.8 24.44 (14:40) 17.78 (14:40) 5.6 0 0 0 5.6
13-10-2019 24.9 (15:30) 16.6 (00:00) 20.8 20 (11:40) 13.89 (11:40) 0 0 0 0 0
12-10-2019 25.5 (17:40) 18.2 (00:00) 21.9 15.56 (15:40) 10.83 (13:40) 0.4 0 0 0 0.4
11-10-2019 26.1 (16:30) 10.4 (04:50) 18.3 9.72 (13:10) 6.94 (12:50) 0 0 0 0 0
10-10-2019 21.9 (16:00) 7.8 (00:00) 14.8 7.22 (09:10) 5.28 (09:30) 0 0 0 0 0
09-10-2019 17.7 (15:20) 11 (00:00) 14.4 13.33 (15:40) 9.72 (16:20) 0 0 0 0 0
08-10-2019 27.9 (16:00) 9 (00:00) 18.4 13.06 (18:50) 9.44 (19:00) 0 0 0 0 0
07-10-2019 20.5 (16:20) 9.9 (00:00) 15.2 14.44 (17:30) 9.72 (15:40) 0 0 0 0 0
06-10-2019 18.7 (15:00) 11.6 (00:00) 15.2 14.44 (16:20) 11.39 (16:20) 0 0 0 0 0
05-10-2019 20.5 (14:40) 11.7 (04:00) 16.1 12.78 (15:10) 9.72 (15:20) 0 0 0 0 0
04-10-2019 21.9 (14:50) 9.9 (00:00) 15.9 11.67 (17:40) 8.89 (17:20) 0 0 0 0 0
03-10-2019 20.9 (16:10) 10.3 (00:00) 15.6 13.06 (18:30) 9.72 (18:30) 0 0 0 0 0
02-10-2019 15.9 (15:00) 11.5 (00:00) 13.7 14.72 (11:50) 10.28 (16:10) 1.8 0 0.4 1.2 0.2
01-10-2019 23.7 (13:30) 12.2 (00:00) 18 12.5 (18:20) 8.61 (15:00) 0 0 0 0 0
30-09-2019 28.2 (16:30) 10.8 (00:00) 19.5 6.94 (00:30) 5.28 (00:40) 0 0 0 0 0
29-09-2019 28.2 (16:30) 12.5 (00:00) 20.4 11.94 (20:20) 9.72 (20:20) 0 0 0 0 0
28-09-2019 25.4 (16:50) 11.4 (00:00) 18.4 8.89 (17:10) 6.11 (16:00) 0 0 0 0 0
27-09-2019 25.5 (17:00) 11.2 (00:00) 18.3 9.17 (19:10) 6.67 (19:20) 0 0 0 0 0
26-09-2019 26.7 (17:20) 10 (00:00) 18.4 5.28 (16:50) 3.33 (12:30) 0 0 0 0 0
25-09-2019 21.2 (15:00) 13.4 (00:00) 17.3 10.56 (13:20) 7.22 (00:10) 0 0 0 0 0
24-09-2019 25.9 (14:50) 13.9 (00:00) 19.9 12.5 (20:30) 8.33 (20:30) 0 0 0 0 0
23-09-2019 21.7 (16:00) 8.9 (00:00) 15.3 6.94 (13:50) 5 (13:50) 0 0 0 0 0
22-09-2019 21.2 (15:10) 12.3 (00:00) 16.8 14.17 (09:10) 10.28 (06:20) 7.2 1 6.2 0 0

Gráficas

Temp. máximas Temp. mínimas Temp. medias Precipitaciones Rachas de viento máximas Velocidades máximas media en intervalos de 10 minutos

Datos horarios

Fecha y hora oficial Temperatura (ºC) Velocidad del viento (km/h) Dirección del viento Racha (km/h) Dirección de racha Precipitación (mm) Presión (hPa) Tendencia (hPa) Humedad (%)
2019-10-21 23:00:00 5.7 6 Sudeste 11 Sudeste 0 -- -- 95
2019-10-21 22:00:00 6.1 9 Sudeste 12 Sudeste 0 -- -- 95
2019-10-21 21:00:00 6.9 8 Sudeste 10 Sudeste 0 -- -- 93
2019-10-21 20:00:00 8.2 5 Sur 8 Sur 0 -- -- 86
2019-10-21 19:00:00 9.8 0 Calma 17 Noroeste 0 -- -- 80
2019-10-21 18:00:00 10.6 5 Oeste 6 Oeste 0.2 -- -- 84
2019-10-21 17:00:00 12.2 6 Noroeste 17 Noroeste 0 -- -- 66
2019-10-21 16:00:00 13.2 11 Noroeste 17 Oeste 0 -- -- 59
2019-10-21 15:00:00 14.6 8 Noroeste 14 Oeste 0 -- -- 58
2019-10-21 14:00:00 13.7 9 Oeste 17 Oeste 0 -- -- 65
2019-10-21 13:00:00 11.2 9 Noroeste 17 Oeste 0 -- -- 78
2019-10-21 12:00:00 10.1 11 Noroeste 15 Noroeste 0 -- -- 85
2019-10-21 11:00:00 10.7 2 Oeste 5 Sudeste 0 -- -- 80
2019-10-21 10:00:00 6.8 3 Sudeste 7 Sudeste 0 -- -- 96
2019-10-21 09:00:00 4.7 3 Sudeste 8 Sudeste 0 -- -- 98
2019-10-21 08:00:00 4.4 6 Sudeste 9 Sudeste 0 -- -- 97
2019-10-21 07:00:00 4.9 6 Sudeste 9 Sudeste 0 -- -- 97
2019-10-21 06:00:00 5.5 4 Sudeste 7 Este 0 -- -- 97
2019-10-21 05:00:00 5.5 5 Sudeste 6 Sudeste 0 -- -- 96
2019-10-21 04:00:00 6.6 0 Calma 4 Sudeste 0 -- -- 96
2019-10-21 03:00:00 7 4 Sudeste 6 Este 0 -- -- 95
2019-10-21 02:00:00 7.6 0 Calma 4 Noroeste 0 -- -- 92
2019-10-21 01:00:00 8.1 0 Calma 10 Norte 0 -- -- 91
2019-10-21 00:00:00 8.5 9 Norte 13 Noroeste 0 -- -- 87
2019-10-20 23:00:00 8.6 13 Noroeste 22 Noroeste 0 -- -- 87
2019-10-20 22:00:00 8.7 16 Noroeste 21 Noroeste 0 -- -- 89
2019-10-20 21:00:00 8.7 12 Norte 21 Norte 0.2 -- -- 91
2019-10-20 20:00:00 9.1 14 Noroeste 22 Noroeste 0.2 -- -- 90
2019-10-20 19:00:00 9.4 14 Noroeste 27 Noroeste 0.4 -- -- 92
2019-10-20 18:00:00 10.6 17 Noroeste 36 Oeste 0 -- -- 81
2019-10-20 17:00:00 13.1 26 Oeste 35 Oeste 0 -- -- 75
2019-10-20 16:00:00 13.1 14 Noroeste 27 Noroeste 0 -- -- 75
2019-10-20 15:00:00 13 19 Noroeste 27 Oeste 0 -- -- 78
2019-10-20 14:00:00 12.4 20 Noroeste 41 Oeste 0 -- -- 79
2019-10-20 13:00:00 16.1 11 Sur 21 Sur 0 -- -- 67
2019-10-20 12:00:00 13.8 4 Sur 18 Sur 0 -- -- 72
2019-10-20 11:00:00 13.7 11 Sudeste 15 Sudeste 0.2 -- -- 75
2019-10-20 10:00:00 11.4 10 Sudeste 14 Norte 0 -- -- 93
2019-10-20 09:00:00 11.4 7 Nordeste 24 Oeste 0 -- -- 86
2019-10-20 08:00:00 11.2 5 Este 22 Sudoeste 0.8 -- -- 90
2019-10-20 07:00:00 11.7 21 Sudoeste 56 Sudeste 2.2 -- -- 88
2019-10-20 06:00:00 13.7 34 Sur 59 Sudeste 0 -- -- 83
2019-10-20 05:00:00 13.4 31 Sudeste 49 Sudeste 0.4 -- -- 86
2019-10-20 04:00:00 13.2 28 Sudeste 53 Sudeste 1.8 -- -- 90
2019-10-20 03:00:00 13.7 34 Sudeste 58 Sudeste 1.4 -- -- 89
2019-10-20 02:00:00 13.7 21 Sur 38 Sudeste 2 -- -- 89
2019-10-20 01:00:00 15 18 Sur 44 Sudeste 0.2 -- -- 76
2019-10-20 00:00:00 16.4 28 Sur 51 Sudeste 0 -- -- 66
2019-10-19 23:00:00 17.3 35 Sudeste 65 Sudeste 0 -- -- 58
2019-10-19 22:00:00 17.3 37 Sudeste 55 Sudeste 0 -- -- 58
2019-10-19 21:00:00 16.7 28 Sudeste 55 Sudeste 0 -- -- 58
2019-10-19 20:00:00 16.2 30 Sudeste 46 Este 0 -- -- 59
2019-10-19 19:00:00 16.8 36 Sudeste 47 Sudeste 0 -- -- 54
2019-10-19 18:00:00 17.1 23 Sudeste 44 Sur 0 -- -- 55
2019-10-19 17:00:00 17.6 28 Sur 52 Sudeste 0 -- -- 57
2019-10-19 16:00:00 17.2 33 Sur 51 Sur 0 -- -- 57
2019-10-19 15:00:00 17.7 40 Sur 58 Sudeste 0 -- -- 55
2019-10-19 14:00:00 17.8 28 Sudeste 46 Sur 0 -- -- 61
2019-10-19 13:00:00 15.9 35 Sur 45 Sur 0 -- -- 61
2019-10-19 12:00:00 15.2 24 Sudeste 38 Sudeste 0 -- -- 72
2019-10-19 11:00:00 14.6 28 Sudeste 38 Sudeste 0 -- -- 75
2019-10-19 10:00:00 14.3 21 Sur 33 Sur 0 -- -- 79
2019-10-19 09:00:00 14 12 Sudeste 26 Sudeste 0 -- -- 85
2019-10-19 08:00:00 13.7 15 Sudeste 19 Sudeste 0 -- -- 86
2019-10-19 07:00:00 14.1 4 Sudeste 12 Sur 0 -- -- 85
2019-10-19 06:00:00 14.7 4 Sudeste 10 Sur 0 -- -- 84
2019-10-19 05:00:00 15.1 9 Sur 17 Sudoeste 0 -- -- 82
2019-10-19 04:00:00 15.6 9 Sudoeste 26 Sur 0 -- -- 79
2019-10-19 03:00:00 16.2 18 Sur 33 Sudeste 0 -- -- 77
2019-10-19 02:00:00 16.4 15 Sur 40 Sur 0 -- -- 76
2019-10-19 01:00:00 16.2 26 Sudeste 43 Sudeste 0 -- -- 76
2019-10-19 00:00:00 15.2 25 Sudeste 32 Sudeste 0 -- -- 80
2019-10-18 23:00:00 15.8 16 Sudeste 34 Sudeste 0 -- -- 77
2019-10-18 22:00:00 15.1 8 Sur 19 Sudeste 0 -- -- 82
2019-10-18 21:00:00 15.5 5 Sur 15 Este 0 -- -- 81
2019-10-18 20:00:00 15.9 14 Este 21 Este 0 -- -- 81
2019-10-18 19:00:00 16.2 8 Sudeste 21 Sudeste 0 -- -- 80
2019-10-18 18:00:00 16.6 12 Sudeste 17 Sudeste 0 -- -- 78
2019-10-18 17:00:00 17.1 9 Sur 21 Sur 0 -- -- 75
2019-10-18 16:00:00 17.7 8 Sur 15 Sur 0 -- -- 71
2019-10-18 15:00:00 18.9 8 Noroeste 14 Oeste 0 -- -- 69
2019-10-18 14:00:00 17.2 6 Noroeste 24 Sudeste 0 -- -- 77
2019-10-18 13:00:00 17.2 10 Sudeste 16 Este 0 -- -- 78
2019-10-18 12:00:00 16.7 3 Sur 10 Sur 0 -- -- 81
2019-10-18 11:00:00 14.5 8 Sudeste 9 Sur 0 -- -- 92
2019-10-18 10:00:00 13.5 0 Calma 4 Este 0 -- -- 92
2019-10-18 09:00:00 13.5 5 Sur 17 Sur 0 -- -- 90
2019-10-18 08:00:00 13.4 14 Sudeste 25 Sudeste 0 -- -- 90
2019-10-18 07:00:00 13.2 5 Sur 37 Sudeste 0 -- -- 91
2019-10-18 06:00:00 13.2 14 Sur 28 Sudeste 0.4 -- -- 90
2019-10-18 05:00:00 13.4 14 Sudeste 33 Sudeste 0 -- -- 85
2019-10-18 04:00:00 13.4 18 Sudeste 30 Sudeste 0 -- -- 82
2019-10-18 03:00:00 14.8 9 Sur 28 Sudeste 0 -- -- 72
2019-10-18 02:00:00 15.3 21 Sudeste 34 Sudeste 0 -- -- 69
2019-10-18 01:00:00 15.1 17 Sudeste 26 Sudeste 0 -- -- 70
2019-10-18 00:00:00 15.2 16 Sudeste 22 Sudeste 0 -- -- 69
2019-10-17 23:00:00 14.5 9 Sudeste 17 Sur 0 -- -- 70
2019-10-17 22:00:00 14.1 12 Sur 16 Sur 0 -- -- 72
2019-10-17 21:00:00 14.6 12 Sudeste 17 Sudeste 0 -- -- 70
2019-10-17 20:00:00 15.1 9 Sur 24 Sur 0 -- -- 68
2019-10-17 19:00:00 17.6 21 Sur 29 Sudeste 0 -- -- 57
2019-10-17 18:00:00 18.4 21 Sudeste 30 Sudeste 0 -- -- 55
2019-10-17 17:00:00 19.6 24 Sudeste 32 Sudeste 0 -- -- 52
2019-10-17 16:00:00 20.4 20 Sudeste 30 Sudeste 0 -- -- 50
2019-10-17 15:00:00 18.5 21 Sudeste 29 Sudeste 0 -- -- 54
2019-10-17 14:00:00 17 21 Sudeste 31 Sudeste 0 -- -- 55
2019-10-17 13:00:00 16 23 Sudeste 33 Sudeste 0 -- -- 57
2019-10-17 12:00:00 15.1 28 Sudeste 34 Sudeste 0 -- -- 60
2019-10-17 11:00:00 14.4 22 Sudeste 27 Sudeste 0 -- -- 61
2019-10-17 10:00:00 13.7 20 Sudeste 27 Sudeste 0 -- -- 65
2019-10-17 09:00:00 11.9 5 Sudeste 9 Sudeste 0 -- -- 73
2019-10-17 08:00:00 12.4 5 Sur 9 Sudeste 0 -- -- 69
2019-10-17 07:00:00 12.8 7 Sur 17 Sudeste 0 -- -- 65
2019-10-17 06:00:00 12.8 7 Sur 18 Sudeste 0 -- -- 65
2019-10-17 05:00:00 12.2 9 Sudeste 19 Sur 0 -- -- 67
2019-10-17 04:00:00 13 7 Sur 23 Sudeste 0 -- -- 60
2019-10-17 03:00:00 14.5 13 Sur 26 Sudeste 0 -- -- 54
2019-10-17 02:00:00 14.8 22 Sudeste 30 Sudeste 0 -- -- 54
2019-10-17 01:00:00 13.9 13 Sudeste 21 Sur 0 -- -- 59
2019-10-17 00:00:00 13.7 14 Sudeste 20 Sudeste 0 -- -- 59
2019-10-16 23:00:00 12.1 13 Sudeste 17 Sudeste 0 -- -- 65
2019-10-16 22:00:00 12.5 7 Sudeste 16 Sudeste 0 -- -- 63
2019-10-16 21:00:00 13.7 4 Sudeste 15 Sudeste 0 -- -- 60
2019-10-16 20:00:00 14.2 9 Sur 25 Sudeste 0 -- -- 61
2019-10-16 19:00:00 17 21 Sudeste 28 Sudeste 0 -- -- 49
2019-10-16 18:00:00 19.2 14 Sudeste 27 Sur 0 -- -- 42
2019-10-16 17:00:00 19.4 16 Sudeste 34 Sudeste 0 -- -- 43
2019-10-16 16:00:00 18.6 17 Sur 42 Sudeste 0 -- -- 47
2019-10-16 15:00:00 17.7 29 Sudeste 42 Sudeste 0 -- -- 52
2019-10-16 14:00:00 16.2 31 Sudeste 39 Sudeste 0 -- -- 56
2019-10-16 13:00:00 13.8 20 Sur 34 Sur 0 -- -- 62
2019-10-16 12:00:00 13.1 18 Sudeste 30 Sudeste 0 -- -- 64
2019-10-16 11:00:00 13.4 20 Sudeste 31 Este 0 -- -- 63
2019-10-16 10:00:00 12.5 17 Sudeste 27 Sudeste 0 -- -- 61
2019-10-16 09:00:00 9.3 10 Sudeste 15 Sudeste 0 -- -- 74
2019-10-16 08:00:00 8.1 7 Sudeste 14 Sur 0 -- -- 76
2019-10-16 07:00:00 8.8 9 Sur 14 Sur 0 -- -- 73
2019-10-16 06:00:00 8.8 10 Sudeste 19 Sur 0 -- -- 74
2019-10-16 05:00:00 10 13 Sur 18 Sudeste 0 -- -- 70
2019-10-16 04:00:00 9.8 12 Sudeste 18 Sudeste 0 -- -- 71
2019-10-16 03:00:00 9.8 9 Sudeste 17 Este 0 -- -- 70
2019-10-16 02:00:00 9.8 6 Sur 10 Sur 0 -- -- 69
2019-10-16 01:00:00 10.2 8 Sur 15 Sudeste 0 -- -- 66
2019-10-16 00:00:00 9.3 9 Este 18 Sudeste 0 -- -- 74
2019-10-15 23:00:00 8.6 12 Sudeste 14 Sudeste 0 -- -- 81
2019-10-15 22:00:00 9.3 10 Sudeste 12 Sudeste 0 -- -- 80
2019-10-15 21:00:00 9.8 8 Sudeste 13 Sudeste 0 -- -- 80
2019-10-15 20:00:00 10.6 9 Sudeste 13 Sudeste 0 -- -- 73
2019-10-15 19:00:00 13 3 Sur 8 Noroeste 0 -- -- 66
2019-10-15 18:00:00 15.9 6 Oeste 19 Noroeste 0 -- -- 57
2019-10-15 17:00:00 15 7 Nordeste 12 Norte 0 -- -- 55
2019-10-15 16:00:00 15.8 4 Sudoeste 19 Noroeste 0 -- -- 49
2019-10-15 15:00:00 13.8 17 Noroeste 23 Noroeste 0 -- -- 57
2019-10-15 14:00:00 13.6 17 Noroeste 24 Noroeste 0 -- -- 58
2019-10-15 13:00:00 13.2 4 Norte 13 Sudoeste 0 -- -- 60
2019-10-15 12:00:00 12.5 7 Sudoeste 13 Sudoeste 0 -- -- 70
2019-10-15 11:00:00 10.3 5 Sudeste 10 Este 0 -- -- 76
2019-10-15 10:00:00 7.9 3 Norte 10 Este 0 -- -- 83
2019-10-15 09:00:00 6.6 4 Sudeste 13 Este 0 -- -- 90
2019-10-15 08:00:00 6 5 Este 8 Sudeste 0 -- -- 91
2019-10-15 07:00:00 6.6 4 Este 10 Sudeste 0 -- -- 90
2019-10-15 06:00:00 7.6 8 Noroeste 20 Oeste 0 -- -- 86
2019-10-15 05:00:00 8.2 12 Oeste 36 Oeste 0.4 -- -- 84
2019-10-15 04:00:00 8.3 13 Noroeste 25 Oeste 1.4 -- -- 92
2019-10-15 03:00:00 8.8 2 Sudeste 19 Oeste 0 -- -- 88
2019-10-15 02:00:00 9.4 18 Oeste 29 Oeste 0 -- -- 83
2019-10-15 01:00:00 10.5 19 Oeste 30 Oeste 0 -- -- 74
2019-10-15 00:00:00 9.6 9 Sudeste 14 Sudeste 1 -- -- 94
2019-10-14 23:00:00 10.1 4 Sudeste 32 Oeste 0.4 -- -- 88
2019-10-14 22:00:00 10.9 15 Norte 44 Oeste 0.8 -- -- 82
2019-10-14 21:00:00 12.4 35 Oeste 73 Oeste 0.2 -- -- 72
2019-10-14 20:00:00 14 32 Sudoeste 55 Sudoeste 3.2 -- -- 79
2019-10-14 19:00:00 18.1 37 Sudeste 48 Sudeste 0 -- -- 73
2019-10-14 18:00:00 18.5 37 Sudeste 59 Sudeste 0 -- -- 72
2019-10-14 17:00:00 19.4 43 Sudeste 71 Sudeste 0 -- -- 67
2019-10-14 16:00:00 18.6 45 Sudeste 81 Sudeste 0 -- -- 71
2019-10-14 15:00:00 19 55 Sudeste 88 Sudeste 0 -- -- 63
2019-10-14 14:00:00 18.9 58 Sudeste 77 Sudeste 0 -- -- 63
2019-10-14 13:00:00 18.7 48 Sudeste 77 Sudeste 0 -- -- 67
2019-10-14 12:00:00 19.2 34 Sudeste 54 Sudeste 0 -- -- 65
2019-10-14 11:00:00 18.9 44 Sudeste 57 Sudeste 0 -- -- 68
2019-10-14 10:00:00 19 41 Sudeste 61 Sudeste 0 -- -- 65
2019-10-14 09:00:00 18.4 38 Sudeste 58 Sudeste 0 -- -- 68
2019-10-14 08:00:00 17.9 44 Sudeste 62 Sudeste 0 -- -- 70
2019-10-14 07:00:00 17.5 41 Sudeste 57 Sudeste 0 -- -- 73
2019-10-14 06:00:00 17.6 43 Sudeste 59 Sudeste 0 -- -- 72
2019-10-14 05:00:00 17.6 40 Sudeste 57 Sudeste 0 -- -- 72
2019-10-14 04:00:00 17.4 35 Sudeste 52 Sudeste 0 -- -- 74
2019-10-14 03:00:00 17.7 29 Sudeste 44 Sudeste 0 -- -- 73
2019-10-14 02:00:00 17.8 21 Sudeste 45 Sudeste 0 -- -- 76
2019-10-14 01:00:00 18.7 40 Sudeste 55 Sudeste 0 -- -- 74
2019-10-14 00:00:00 19.3 42 Sudeste 53 Sudeste 0 -- -- 71
2019-10-13 23:00:00 20.1 39 Sudeste 56 Sudeste 0 -- -- 68
2019-10-13 22:00:00 20.2 26 Sudeste 41 Sudeste 0 -- -- 65
2019-10-13 21:00:00 21 32 Sudeste 48 Sudeste 0 -- -- 60
2019-10-13 20:00:00 21.7 26 Sudeste 57 Sur 0 -- -- 57
2019-10-13 19:00:00 23.3 43 Sudeste 63 Sudeste 0 -- -- 52
2019-10-13 18:00:00 24.3 42 Sudeste 63 Sudeste 0 -- -- 49
2019-10-13 17:00:00 23.8 35 Sudeste 55 Sudeste 0 -- -- 49
2019-10-13 16:00:00 24.3 44 Sudeste 59 Sudeste 0 -- -- 49
2019-10-13 15:00:00 24.6 41 Sudeste 64 Sudeste 0 -- -- 52
2019-10-13 14:00:00 22.5 42 Sudeste 62 Sudeste 0 -- -- 57
2019-10-13 13:00:00 22.9 42 Sudeste 60 Sur 0 -- -- 57
2019-10-13 12:00:00 22 41 Sudeste 72 Sudeste 0 -- -- 61
2019-10-13 11:00:00 20.2 42 Sudeste 59 Sudeste 0 -- -- 70
2019-10-13 10:00:00 18.5 38 Sudeste 50 Sudeste 0 -- -- 75
2019-10-13 09:00:00 17.3 34 Sudeste 51 Sudeste 0 -- -- 78
2019-10-13 08:00:00 16.7 32 Sudeste 52 Sudeste 0 -- -- 80
2019-10-13 07:00:00 16.9 31 Sudeste 44 Sudeste 0 -- -- 79
2019-10-13 06:00:00 16.7 27 Sudeste 38 Sudeste 0 -- -- 79
2019-10-13 05:00:00 17 18 Sur 39 Sudeste 0 -- -- 76
2019-10-13 04:00:00 17.6 28 Sudeste 48 Sudeste 0 -- -- 75
2019-10-13 03:00:00 17.6 27 Sudeste 49 Sudeste 0 -- -- 77
2019-10-13 02:00:00 18.4 36 Sudeste 49 Sudeste 0 -- -- 73
2019-10-13 01:00:00 18.6 29 Sudeste 42 Sudeste 0 -- -- 72
2019-10-13 00:00:00 19 24 Sudeste 37 Sudeste 0 -- -- 71
2019-10-12 23:00:00 20 25 Sudeste 37 Sudeste 0 -- -- 67
2019-10-12 22:00:00 19.8 23 Sudeste 38 Sudeste 0 -- -- 70
2019-10-12 21:00:00 20.1 27 Sudeste 39 Sudeste 0.2 -- -- 68
2019-10-12 20:00:00 22.3 16 Sur 40 Sudeste 0.2 -- -- 59
2019-10-12 19:00:00 23.3 29 Sudeste 47 Sudeste 0 -- -- 52
2019-10-12 18:00:00 24.8 36 Sudeste 50 Sudeste 0 -- -- 48
2019-10-12 17:00:00 24.3 30 Sudeste 50 Sudeste 0 -- -- 50
2019-10-12 16:00:00 24.1 34 Sudeste 56 Sudeste 0 -- -- 50
2019-10-12 15:00:00 24.9 38 Sudeste 50 Sudeste 0 -- -- 49
2019-10-12 14:00:00 23.4 37 Sudeste 51 Sudeste 0 -- -- 55
2019-10-12 13:00:00 23.3 32 Sur 44 Sur 0 -- -- 58
2019-10-12 12:00:00 20.4 29 Sur 38 Sur 0 -- -- 70
2019-10-12 11:00:00 19.6 27 Sudeste 35 Sudeste 0 -- -- 72
2019-10-12 10:00:00 18.8 26 Sur 36 Sur 0 -- -- 75
2019-10-12 09:00:00 18.9 32 Sudeste 45 Sudeste 0 -- -- 73
2019-10-12 08:00:00 18.3 20 Sudeste 45 Sudeste 0 -- -- 76
2019-10-12 07:00:00 18.3 31 Sur 46 Sur 0 -- -- 77
2019-10-12 06:00:00 18.5 24 Sur 37 Sur 0 -- -- 76
2019-10-12 05:00:00 18.5 21 Sudeste 34 Sudeste 0 -- -- 75
2019-10-12 04:00:00 18.5 10 Sudeste 26 Sudeste 0 -- -- 77
2019-10-12 03:00:00 18.7 16 Sudeste 31 Sur 0 -- -- 77
2019-10-12 02:00:00 18.7 24 Sudeste 40 Sur 0 -- -- 77
2019-10-12 01:00:00 19.6 23 Sudeste 35 Sur 0 -- -- 73
2019-10-12 00:00:00 19.6 10 Sudeste 21 Sudeste 0 -- -- 68
2019-10-11 23:00:00 19.1 9 Este 18 Sudeste 0 -- -- 69
2019-10-11 22:00:00 19.9 7 Sudeste 14 Este 0 -- -- 65
2019-10-11 21:00:00 20.8 8 Sudeste 18 Sudeste 0 -- -- 61
2019-10-11 20:00:00 22.2 13 Sudeste 26 Sudeste 0 -- -- 57
2019-10-11 19:00:00 23.2 11 Sur 20 Sur 0 -- -- 53
2019-10-11 18:00:00 25.3 14 Sur 26 Sur 0 -- -- 48
2019-10-11 17:00:00 25.8 15 Sur 28 Sur 0 -- -- 46
2019-10-11 16:00:00 25.6 17 Sudeste 26 Sudeste 0 -- -- 47
2019-10-11 15:00:00 24.7 18 Sudeste 29 Sudeste 0 -- -- 49
2019-10-11 14:00:00 23.5 20 Sudeste 35 Sudeste 0 -- -- 52
2019-10-11 13:00:00 21.7 23 Sudeste 33 Sudeste 0 -- -- 56
2019-10-11 12:00:00 21.4 8 Sur 14 Sur 0 -- -- 52
2019-10-11 11:00:00 18.8 8 Sur 12 Sur 0 -- -- 56
2019-10-11 10:00:00 15 8 Sudeste 13 Sudeste 0 -- -- 62
2019-10-11 09:00:00 12.6 7 Sudeste 15 Sudeste 0 -- -- 62
2019-10-11 08:00:00 10.9 12 Sudeste 19 Sudeste 0 -- -- 66
2019-10-11 07:00:00 10.9 14 Sudeste 18 Sudeste 0 -- -- 66
2019-10-11 06:00:00 11.6 10 Sudeste 14 Sudeste 0 -- -- 64
2019-10-11 05:00:00 10.7 15 Sudeste 18 Sudeste 0 -- -- 66
2019-10-11 04:00:00 11.1 8 Sudeste 13 Sur 0 -- -- 68
2019-10-11 03:00:00 11.6 9 Sudeste 12 Sur 0 -- -- 63
2019-10-11 02:00:00 10.9 10 Sudeste 15 Sudeste 0 -- -- 67
2019-10-11 01:00:00 10.9 10 Sudeste 14 Este 0 -- -- 73
2019-10-11 00:00:00 12.2 13 Sudeste 17 Sudeste 0 -- -- 68
2019-10-10 23:00:00 10.6 9 Sudeste 13 Sudeste 0 -- -- 75
2019-10-10 22:00:00 11.6 8 Sudeste 10 Sudeste 0 -- -- 71
2019-10-10 21:00:00 13 7 Sudeste 9 Sur 0 -- -- 66
2019-10-10 20:00:00 15.2 5 Sudeste 6 Sur 0 -- -- 57
2019-10-10 19:00:00 17.8 2 Sur 14 Noroeste 0 -- -- 51
2019-10-10 18:00:00 21 12 Oeste 17 Oeste 0 -- -- 41
2019-10-10 17:00:00 21.6 12 Oeste 18 Oeste 0 -- -- 40
2019-10-10 16:00:00 21.9 9 Oeste 16 Oeste 0 -- -- 41
2019-10-10 15:00:00 20.2 7 Oeste 17 Oeste 0 -- -- 44
2019-10-10 14:00:00 19.3 10 Noroeste 21 Noroeste 0 -- -- 53
2019-10-10 13:00:00 17.2 13 Noroeste 25 Noroeste 0 -- -- 57
2019-10-10 12:00:00 15.1 17 Noroeste 22 Noroeste 0 -- -- 66
2019-10-10 11:00:00 13.6 14 Noroeste 25 Noroeste 0 -- -- 73
2019-10-10 10:00:00 11 17 Noroeste 26 Noroeste 0 -- -- 85
2019-10-10 09:00:00 8.9 13 Noroeste 18 Noroeste 0 -- -- 94
2019-10-10 08:00:00 8.8 15 Noroeste 20 Noroeste 0 -- -- 94
2019-10-10 07:00:00 8.9 12 Noroeste 21 Noroeste 0 -- -- 93
2019-10-10 06:00:00 8 13 Noroeste 18 Noroeste 0 -- -- 95
2019-10-10 05:00:00 8.4 2 Sudeste 12 Noroeste 0 -- -- 91
2019-10-10 04:00:00 8.9 9 Noroeste 14 Noroeste 0 -- -- 92
2019-10-10 03:00:00 9.4 3 Norte 12 Noroeste 0 -- -- 92
2019-10-10 02:00:00 10.2 9 Noroeste 15 Noroeste 0 -- -- 87
2019-10-10 01:00:00 10.7 14 Noroeste 19 Noroeste 0 -- -- 85
2019-10-10 00:00:00 11.6 15 Noroeste 20 Noroeste 0 -- -- 80
2019-10-09 23:00:00 11.2 7 Norte 19 Noroeste 0 -- -- 81
2019-10-09 22:00:00 11.5 13 Noroeste 20 Noroeste 0 -- -- 77
2019-10-09 21:00:00 12.3 15 Norte 35 Norte 0 -- -- 74
2019-10-09 20:00:00 13.4 24 Norte 39 Norte 0 -- -- 70
2019-10-09 19:00:00 14.3 30 Norte 44 Noroeste 0 -- -- 65
2019-10-09 18:00:00 15.8 28 Noroeste 44 Noroeste 0 -- -- 62
2019-10-09 17:00:00 16.7 33 Noroeste 45 Noroeste 0 -- -- 61
2019-10-09 16:00:00 17.3 28 Noroeste 48 Noroeste 0 -- -- 59
2019-10-09 15:00:00 16.5 26 Noroeste 37 Noroeste 0 -- -- 62
2019-10-09 14:00:00 16.9 28 Noroeste 40 Noroeste 0 -- -- 61
2019-10-09 13:00:00 17 30 Noroeste 42 Noroeste 0 -- -- 61
2019-10-09 12:00:00 15 22 Noroeste 37 Noroeste 0 -- -- 72
2019-10-09 11:00:00 14.7 23 Noroeste 39 Noroeste 0 -- -- 77
2019-10-09 10:00:00 13.9 22 Noroeste 32 Noroeste 0 -- -- 82
2019-10-09 09:00:00 13.6 15 Noroeste 27 Noroeste 0 -- -- 85
2019-10-09 08:00:00 13.4 17 Noroeste 23 Noroeste 0 -- -- 87
2019-10-09 07:00:00 13.3 18 Noroeste 32 Noroeste 0 -- -- 87
2019-10-09 06:00:00 13.2 23 Noroeste 34 Noroeste 0 -- -- 88
2019-10-09 05:00:00 12.8 17 Noroeste 22 Noroeste 0 -- -- 92
2019-10-09 04:00:00 13.4 15 Noroeste 24 Noroeste 0 -- -- 90
2019-10-09 03:00:00 14.3 17 Noroeste 31 Noroeste 0 -- -- 87
2019-10-09 02:00:00 15.2 26 Noroeste 36 Oeste 0 -- -- 85
2019-10-09 01:00:00 16.6 20 Noroeste 27 Noroeste 0 -- -- 82
2019-10-09 00:00:00 17.2 17 Noroeste 24 Noroeste 0 -- -- 82
2019-10-08 23:00:00 17.3 17 Noroeste 31 Noroeste 0 -- -- 80
2019-10-08 22:00:00 17.1 19 Noroeste 35 Noroeste 0 -- -- 78
2019-10-08 21:00:00 18.1 27 Noroeste 36 Oeste 0 -- -- 70
2019-10-08 20:00:00 19.2 26 Noroeste 44 Noroeste 0 -- -- 56
2019-10-08 19:00:00 21.6 34 Noroeste 47 Oeste 0 -- -- 47
2019-10-08 18:00:00 26.6 15 Oeste 19 Oeste 0 -- -- 33
2019-10-08 17:00:00 27.6 8 Oeste 19 Oeste 0 -- -- 33
2019-10-08 16:00:00 27.9 9 Oeste 20 Noroeste 0 -- -- 34
2019-10-08 15:00:00 26.5 10 Noroeste 23 Sudeste 0 -- -- 35
2019-10-08 14:00:00 25.9 6 Oeste 13 Noroeste 0 -- -- 34
2019-10-08 13:00:00 22.6 7 Noroeste 16 Noroeste 0 -- -- 37
2019-10-08 12:00:00 21.4 5 Oeste 8 Oeste 0 -- -- 39
2019-10-08 11:00:00 18.4 3 Oeste 6 Sudeste 0 -- -- 38
2019-10-08 10:00:00 15.3 6 Sudeste 12 Sudeste 0 -- -- 42
2019-10-08 09:00:00 11.3 4 Sudeste 8 Sudeste 0 -- -- 53
2019-10-08 08:00:00 9.5 8 Sudeste 10 Sudeste 0 -- -- 58
2019-10-08 07:00:00 9.5 6 Sudeste 12 Sudeste 0 -- -- 63
2019-10-08 06:00:00 10.6 2 Sudeste 6 Sudeste 0 -- -- 63
2019-10-08 05:00:00 9.7 3 Sudoeste 9 Noroeste 0 -- -- 68
2019-10-08 04:00:00 11.2 5 Noroeste 13 Noroeste 0 -- -- 62
2019-10-08 03:00:00 11.5 3 Norte 9 Noroeste 0 -- -- 60
2019-10-08 02:00:00 12.1 6 Noroeste 13 Norte 0 -- -- 60
2019-10-08 01:00:00 13.5 7 Noroeste 19 Noroeste 0 -- -- 52
2019-10-08 00:00:00 14.5 15 Noroeste 27 Noroeste 0 -- -- 50
2019-10-07 23:00:00 14.6 18 Noroeste 26 Noroeste 0 -- -- 52
2019-10-07 22:00:00 15.1 20 Noroeste 24 Noroeste 0 -- -- 51
2019-10-07 21:00:00 15.7 16 Noroeste 23 Noroeste 0 -- -- 47
2019-10-07 20:00:00 16.4 17 Noroeste 37 Noroeste 0 -- -- 43
2019-10-07 19:00:00 18.1 29 Noroeste 45 Noroeste 0 -- -- 36
2019-10-07 18:00:00 19.5 29 Noroeste 52 Noroeste 0 -- -- 41
2019-10-07 17:00:00 20.4 32 Noroeste 48 Noroeste 0 -- -- 42
2019-10-07 16:00:00 20.3 32 Noroeste 48 Noroeste 0 -- -- 42
2019-10-07 15:00:00 20 27 Noroeste 45 Noroeste 0 -- -- 46
2019-10-07 14:00:00 19.3 23 Noroeste 38 Noroeste 0 -- -- 53
2019-10-07 13:00:00 17.5 27 Noroeste 40 Noroeste 0 -- -- 54
2019-10-07 12:00:00 16.1 18 Noroeste 39 Noroeste 0 -- -- 66
2019-10-07 11:00:00 14 24 Oeste 38 Noroeste 0 -- -- 77
2019-10-07 10:00:00 12.7 26 Noroeste 34 Noroeste 0 -- -- 82
2019-10-07 09:00:00 10.8 25 Noroeste 33 Noroeste 0 -- -- 90
2019-10-07 08:00:00 9.9 23 Noroeste 30 Noroeste 0 -- -- 92
2019-10-07 07:00:00 10.1 18 Noroeste 27 Noroeste 0 -- -- 90
2019-10-07 06:00:00 10.1 21 Noroeste 28 Noroeste 0 -- -- 89
2019-10-07 05:00:00 10.2 21 Noroeste 27 Noroeste 0 -- -- 88
2019-10-07 04:00:00 10.4 22 Noroeste 29 Noroeste 0 -- -- 87
2019-10-07 03:00:00 10.8 18 Noroeste 29 Noroeste 0 -- -- 84
2019-10-07 02:00:00 11.7 24 Noroeste 40 Noroeste 0 -- -- 80
2019-10-07 01:00:00 12.2 25 Noroeste 46 Noroeste 0 -- -- 74
2019-10-07 00:00:00 12.9 25 Noroeste 44 Noroeste 0 -- -- 71
2019-10-06 23:00:00 13.1 24 Noroeste 41 Noroeste 0 -- -- 83
2019-10-06 22:00:00 13.9 27 Noroeste 50 Noroeste 0 -- -- 78
2019-10-06 21:00:00 14.3 24 Noroeste 37 Noroeste 0 -- -- 78
2019-10-06 20:00:00 14.6 24 Noroeste 46 Noroeste 0 -- -- 77
2019-10-06 19:00:00 15.1 21 Noroeste 44 Noroeste 0 -- -- 77
2019-10-06 18:00:00 15.7 34 Noroeste 48 Noroeste 0 -- -- 76
2019-10-06 17:00:00 17.9 32 Noroeste 52 Noroeste 0 -- -- 67
2019-10-06 16:00:00 17.5 34 Noroeste 46 Noroeste 0 -- -- 71
2019-10-06 15:00:00 18.7 26 Oeste 37 Oeste 0 -- -- 69
2019-10-06 14:00:00 16.7 28 Noroeste 37 Noroeste 0 -- -- 76
2019-10-06 13:00:00 16 12 Noroeste 30 Noroeste 0 -- -- 71
2019-10-06 12:00:00 15.7 22 Noroeste 32 Noroeste 0 -- -- 71
2019-10-06 11:00:00 14.7 19 Noroeste 26 Noroeste 0 -- -- 72
2019-10-06 10:00:00 14.6 11 Noroeste 17 Noroeste 0 -- -- 70
2019-10-06 09:00:00 12.9 14 Noroeste 24 Noroeste 0 -- -- 77
2019-10-06 08:00:00 12 15 Noroeste 21 Noroeste 0 -- -- 81
2019-10-06 07:00:00 12 19 Noroeste 28 Noroeste 0 -- -- 81
2019-10-06 06:00:00 12.3 17 Noroeste 33 Noroeste 0 -- -- 83
2019-10-06 05:00:00 13 22 Noroeste 32 Noroeste 0 -- -- 81
2019-10-06 04:00:00 12.6 19 Noroeste 33 Noroeste 0 -- -- 85
2019-10-06 03:00:00 11.6 12 Noroeste 36 Noroeste 0 -- -- 88
2019-10-06 02:00:00 12.5 25 Noroeste 37 Noroeste 0 -- -- 88
2019-10-06 01:00:00 12.6 16 Noroeste 29 Noroeste 0 -- -- 88
2019-10-06 00:00:00 13.1 17 Noroeste 34 Noroeste 0 -- -- 86
2019-10-05 23:00:00 13.5 23 Noroeste 36 Noroeste 0 -- -- 86
2019-10-05 22:00:00 13.5 21 Noroeste 39 Noroeste 0 -- -- 85
2019-10-05 21:00:00 14.4 35 Noroeste 41 Noroeste 0 -- -- 82
2019-10-05 20:00:00 15.4 28 Noroeste 39 Oeste 0 -- -- 77
2019-10-05 19:00:00 16.8 28 Noroeste 36 Oeste 0 -- -- 70
2019-10-05 18:00:00 19.1 29 Noroeste 40 Noroeste 0 -- -- 63
2019-10-05 17:00:00 19.7 31 Noroeste 41 Noroeste 0 -- -- 61
2019-10-05 16:00:00 20 30 Oeste 46 Noroeste 0 -- -- 60
2019-10-05 15:00:00 20.2 31 Noroeste 42 Oeste 0 -- -- 60
2019-10-05 14:00:00 19.6 27 Oeste 36 Oeste 0 -- -- 62
2019-10-05 13:00:00 18.6 22 Noroeste 33 Oeste 0 -- -- 65
2019-10-05 12:00:00 17 23 Noroeste 37 Noroeste 0 -- -- 68
2019-10-05 11:00:00 15.5 25 Noroeste 37 Noroeste 0 -- -- 72
2019-10-05 10:00:00 14.3 19 Noroeste 27 Noroeste 0 -- -- 77
2019-10-05 09:00:00 12.7 19 Noroeste 28 Noroeste 0 -- -- 84
2019-10-05 08:00:00 12.6 23 Noroeste 36 Noroeste 0 -- -- 84
2019-10-05 07:00:00 12.4 22 Noroeste 34 Noroeste 0 -- -- 83
2019-10-05 06:00:00 12.1 24 Noroeste 33 Noroeste 0 -- -- 88
2019-10-05 05:00:00 11.9 21 Noroeste 26 Noroeste 0 -- -- 93
2019-10-05 04:00:00 11.7 13 Noroeste 19 Noroeste 0 -- -- 93
2019-10-05 03:00:00 12.8 12 Noroeste 19 Noroeste 0 -- -- 88
2019-10-05 02:00:00 13.1 13 Noroeste 21 Noroeste 0 -- -- 88
2019-10-05 01:00:00 13.8 15 Noroeste 26 Noroeste 0 -- -- 85
2019-10-05 00:00:00 13.6 16 Noroeste 23 Noroeste 0 -- -- 85
2019-10-04 23:00:00 13.6 22 Noroeste 28 Noroeste 0 -- -- 86
2019-10-04 22:00:00 13.7 23 Noroeste 32 Noroeste 0 -- -- 86
2019-10-04 21:00:00 14.5 20 Noroeste 34 Norte 0 -- -- 82
2019-10-04 20:00:00 16.2 27 Norte 36 Norte 0 -- -- 75
2019-10-04 19:00:00 17.7 25 Norte 39 Noroeste 0 -- -- 71
2019-10-04 18:00:00 19.7 30 Noroeste 42 Noroeste 0 -- -- 65
2019-10-04 17:00:00 21 23 Noroeste 37 Noroeste 0 -- -- 61
2019-10-04 16:00:00 20.9 27 Noroeste 34 Noroeste 0 -- -- 62
2019-10-04 15:00:00 21.6 22 Noroeste 32 Noroeste 0 -- -- 61
2019-10-04 14:00:00 20.7 21 Noroeste 33 Noroeste 0 -- -- 68
2019-10-04 13:00:00 19.6 19 Noroeste 33 Noroeste 0 -- -- 70
2019-10-04 12:00:00 19.1 22 Noroeste 29 Noroeste 0 -- -- 71
2019-10-04 11:00:00 17.9 13 Noroeste 18 Noroeste 0 -- -- 71
2019-10-04 10:00:00 14.6 9 Noroeste 14 Noroeste 0 -- -- 73
2019-10-04 09:00:00 13 10 Noroeste 14 Noroeste 0 -- -- 77
2019-10-04 08:00:00 12.3 6 Sudeste 9 Sudeste 0 -- -- 86
2019-10-04 07:00:00 11.6 6 Sudeste 8 Sudeste 0 -- -- 84
2019-10-04 06:00:00 10.6 5 Sudeste 12 Sudeste 0 -- -- 85
2019-10-04 05:00:00 10.7 8 Sudeste 9 Sudeste 0 -- -- 82
2019-10-04 04:00:00 12 2 Norte 12 Sudeste 0 -- -- 72
2019-10-04 03:00:00 12 3 Este 9 Norte 0 -- -- 68
2019-10-04 02:00:00 13.1 5 Oeste 23 Noroeste 0 -- -- 63
2019-10-04 01:00:00 14.1 17 Noroeste 32 Noroeste 0 -- -- 59
2019-10-04 00:00:00 14 27 Noroeste 33 Noroeste 0 -- -- 64
2019-10-03 23:00:00 14.2 17 Noroeste 27 Noroeste 0 -- -- 64
2019-10-03 22:00:00 14.7 23 Noroeste 31 Noroeste 0 -- -- 62
2019-10-03 21:00:00 15.4 27 Noroeste 34 Noroeste 0 -- -- 60
2019-10-03 20:00:00 16.3 25 Noroeste 41 Noroeste 0 -- -- 57
2019-10-03 19:00:00 17.8 30 Noroeste 47 Norte 0 -- -- 54
2019-10-03 18:00:00 19.2 32 Noroeste 44 Noroeste 0 -- -- 54
2019-10-03 17:00:00 20.5 26 Noroeste 39 Noroeste 0 -- -- 50
2019-10-03 16:00:00 20.8 29 Noroeste 44 Noroeste 0 -- -- 48
2019-10-03 15:00:00 20.1 29 Noroeste 44 Noroeste 0 -- -- 41
2019-10-03 14:00:00 18.8 22 Noroeste 32 Noroeste 0 -- -- 53
2019-10-03 13:00:00 17.2 20 Noroeste 30 Noroeste 0 -- -- 62
2019-10-03 12:00:00 14.9 20 Noroeste 30 Noroeste 0 -- -- 71
2019-10-03 11:00:00 13.3 21 Noroeste 27 Noroeste 0 -- -- 73
2019-10-03 10:00:00 12.5 22 Noroeste 28 Noroeste 0 -- -- 78
2019-10-03 09:00:00 10.8 19 Noroeste 28 Noroeste 0 -- -- 88
2019-10-03 08:00:00 10.4 20 Noroeste 27 Noroeste 0 -- -- 92
2019-10-03 07:00:00 10.8 18 Noroeste 31 Noroeste 0 -- -- 91
2019-10-03 06:00:00 11.2 23 Noroeste 31 Noroeste 0 -- -- 92
2019-10-03 05:00:00 11.5 23 Noroeste 28 Noroeste 0 -- -- 92
2019-10-03 04:00:00 11.2 22 Noroeste 35 Noroeste 0 -- -- 93
2019-10-03 03:00:00 11.6 23 Noroeste 30 Noroeste 0 -- -- 93
2019-10-03 02:00:00 11.8 20 Noroeste 31 Noroeste 0 -- -- 92
2019-10-03 01:00:00 11.8 26 Noroeste 33 Noroeste 0 -- -- 90
2019-10-03 00:00:00 12.2 27 Noroeste 48 Noroeste 0.2 -- -- 85
2019-10-02 23:00:00 12.7 36 Noroeste 48 Noroeste 0 -- -- 83
2019-10-02 22:00:00 12.5 32 Noroeste 47 Noroeste 0 -- -- 88
2019-10-02 21:00:00 12.7 31 Noroeste 43 Noroeste 0 -- -- 89
2019-10-02 20:00:00 13.2 26 Noroeste 44 Noroeste 0 -- -- 85
2019-10-02 19:00:00 13.7 30 Noroeste 49 Noroeste 0 -- -- 86
2019-10-02 18:00:00 13.7 27 Noroeste 39 Noroeste 0 -- -- 90
2019-10-02 17:00:00 13.6 29 Noroeste 50 Noroeste 0.2 -- -- 92
2019-10-02 16:00:00 15.6 36 Noroeste 49 Noroeste 0 -- -- 75
2019-10-02 15:00:00 15.9 30 Noroeste 51 Noroeste 0 -- -- 74
2019-10-02 14:00:00 13.7 32 Noroeste 48 Norte 0.2 -- -- 93
2019-10-02 13:00:00 14.6 33 Noroeste 48 Noroeste 0.8 -- -- 85
2019-10-02 12:00:00 13.2 31 Noroeste 53 Oeste 0 -- -- 88
2019-10-02 11:00:00 13.1 27 Noroeste 40 Oeste 0 -- -- 86
2019-10-02 10:00:00 12 19 Noroeste 30 Noroeste 0.2 -- -- 95
2019-10-02 09:00:00 11.9 17 Noroeste 27 Noroeste 0 -- -- 94
2019-10-02 08:00:00 11.6 21 Noroeste 33 Noroeste 0.2 -- -- 94
2019-10-02 07:00:00 11.8 20 Noroeste 33 Noroeste 0 -- -- 91
2019-10-02 06:00:00 12.5 32 Noroeste 42 Noroeste 0 -- -- 83
2019-10-02 05:00:00 13 24 Noroeste 35 Noroeste 0 -- -- 78
2019-10-02 04:00:00 13.7 22 Noroeste 43 Noroeste 0 -- -- 77
2019-10-02 03:00:00 13.9 21 Noroeste 33 Noroeste 0 -- -- 79
2019-10-02 02:00:00 14.3 18 Noroeste 40 Norte 0 -- -- 81
2019-10-02 01:00:00 15.1 16 Noroeste 23 Noroeste 0 -- -- 81
2019-10-02 00:00:00 15.1 9 Noroeste 28 Norte 0 -- -- 80
2019-10-01 23:00:00 15.4 17 Noroeste 36 Noroeste 0 -- -- 78
2019-10-01 22:00:00 15.7 12 Noroeste 23 Noroeste 0 -- -- 78
2019-10-01 21:00:00 16.1 17 Norte 28 Noroeste 0 -- -- 75
2019-10-01 20:00:00 17.2 29 Norte 39 Norte 0 -- -- 70
2019-10-01 19:00:00 18.4 23 Noroeste 45 Noroeste 0 -- -- 68
2019-10-01 18:00:00 21.2 24 Noroeste 42 Noroeste 0 -- -- 60
2019-10-01 17:00:00 22.2 26 Noroeste 35 Noroeste 0 -- -- 54
2019-10-01 16:00:00 22.3 20 Noroeste 39 Noroeste 0 -- -- 55
2019-10-01 15:00:00 20.9 31 Noroeste 39 Noroeste 0 -- -- 60
2019-10-01 14:00:00 22.2 27 Noroeste 42 Noroeste 0 -- -- 62
2019-10-01 13:00:00 22.8 17 Noroeste 28 Noroeste 0 -- -- 58
2019-10-01 12:00:00 20.7 17 Noroeste 28 Noroeste 0 -- -- 63
2019-10-01 11:00:00 19.7 9 Noroeste 17 Noroeste 0 -- -- 61
2019-10-01 10:00:00 17.5 3 Noroeste 10 Sudeste 0 -- -- 66
2019-10-01 09:00:00 13.7 9 Sudeste 12 Sudeste 0 -- -- 79
2019-10-01 08:00:00 13.4 3 Este 6 Sudeste 0 -- -- 79
2019-10-01 07:00:00 13.7 5 Noroeste 9 Este 0 -- -- 79
2019-10-01 06:00:00 15.4 5 Sudeste 18 Sur 0 -- -- 68
2019-10-01 05:00:00 16.1 13 Sudeste 20 Sudeste 0 -- -- 67
2019-10-01 04:00:00 14.7 12 Sudeste 15 Sudeste 0 -- -- 74
2019-10-01 03:00:00 15.9 10 Sudeste 14 Sudeste 0 -- -- 71
2019-10-01 02:00:00 15 12 Sudeste 14 Sudeste 0 -- -- 78
2019-10-01 01:00:00 16.1 9 Sudeste 12 Este 0 -- -- 73
2019-10-01 00:00:00 17 7 Sudeste 15 Sudeste 0 -- -- 70
2019-09-30 23:00:00 17 9 Sudeste 12 Sudeste 0 -- -- 72
2019-09-30 22:00:00 18.1 10 Sudeste 13 Sudeste 0 -- -- 68
2019-09-30 21:00:00 19.8 8 Sudeste 12 Sudeste 0 -- -- 65
2019-09-30 20:00:00 21.2 6 Sur 12 Sur 0 -- -- 57
2019-09-30 19:00:00 24.7 5 Sudoeste 11 Oeste 0 -- -- 48
2019-09-30 18:00:00 27.7 6 Oeste 18 Oeste 0 -- -- 38
2019-09-30 17:00:00 27.7 5 Noroeste 14 Sudoeste 0 -- -- 43
2019-09-30 16:00:00 27.4 9 Oeste 17 Noroeste 0 -- -- 42
2019-09-30 15:00:00 26.5 8 Noroeste 16 Oeste 0 -- -- 43
2019-09-30 14:00:00 24.9 11 Noroeste 17 Noroeste 0 -- -- 49
2019-09-30 13:00:00 23.9 4 Noroeste 11 Noroeste 0 -- -- 52
2019-09-30 12:00:00 21.7 3 Norte 9 Sur 0 -- -- 62
2019-09-30 11:00:00 19.5 3 Noroeste 6 Sur 0 -- -- 69
2019-09-30 10:00:00 17 2 Sur 4 Este 0 -- -- 81
2019-09-30 09:00:00 12.2 5 Sudeste 10 Sudeste 0 -- -- 94
2019-09-30 08:00:00 10.9 9 Sudeste 10 Sudeste 0 -- -- 95
2019-09-30 07:00:00 11.1 5 Sudeste 9 Sudeste 0 -- -- 94
2019-09-30 06:00:00 12 5 Sudeste 9 Sudeste 0 -- -- 93
2019-09-30 05:00:00 12.4 5 Sudeste 9 Noroeste 0 -- -- 91
2019-09-30 04:00:00 13.8 7 Noroeste 10 Noroeste 0 -- -- 88
2019-09-30 03:00:00 14.8 8 Noroeste 18 Noroeste 0 -- -- 85
2019-09-30 02:00:00 15.6 14 Noroeste 20 Noroeste 0 -- -- 80
2019-09-30 01:00:00 16 16 Noroeste 25 Noroeste 0 -- -- 74
2019-09-30 00:00:00 16.4 14 Noroeste 24 Noroeste 0 -- -- 68
2019-09-29 23:00:00 17.1 20 Noroeste 28 Noroeste 0 -- -- 60
2019-09-29 22:00:00 17.7 20 Noroeste 35 Noroeste 0 -- -- 56
2019-09-29 21:00:00 19.7 27 Noroeste 43 Oeste 0 -- -- 53
2019-09-29 20:00:00 21.2 7 Sur 15 Noroeste 0 -- -- 49
2019-09-29 19:00:00 25.3 4 Noroeste 18 Noroeste 0 -- -- 36
2019-09-29 18:00:00 27 16 Noroeste 24 Noroeste 0 -- -- 34
2019-09-29 17:00:00 27.9 15 Oeste 26 Sur 0 -- -- 33
2019-09-29 16:00:00 28 14 Oeste 24 Oeste 0 -- -- 31
2019-09-29 15:00:00 26.6 15 Oeste 25 Noroeste 0 -- -- 38
2019-09-29 14:00:00 25.7 12 Noroeste 18 Noroeste 0 -- -- 52
2019-09-29 13:00:00 25.4 6 Sudeste 18 Sudeste 0 -- -- 48
2019-09-29 12:00:00 21.5 9 Noroeste 13 Noroeste 0 -- -- 64
2019-09-29 11:00:00 20.1 5 Noroeste 9 Oeste 0 -- -- 61
2019-09-29 10:00:00 16.8 6 Oeste 15 Sudeste 0 -- -- 68
2019-09-29 09:00:00 14.6 9 Sudeste 13 Este 0 -- -- 72
2019-09-29 08:00:00 13.3 10 Sudeste 13 Sudeste 0 -- -- 75
2019-09-29 07:00:00 13.6 10 Sudeste 13 Sudeste 0 -- -- 74
2019-09-29 06:00:00 12.8 10 Sudeste 16 Este 0 -- -- 80
2019-09-29 05:00:00 14.2 11 Sudeste 15 Sudeste 0 -- -- 74
2019-09-29 04:00:00 16.3 5 Sudeste 18 Sur 0 -- -- 64
2019-09-29 03:00:00 16.8 12 Sudeste 22 Sudeste 0 -- -- 64
2019-09-29 02:00:00 16.7 16 Sudeste 21 Sudeste 0 -- -- 66
2019-09-29 01:00:00 16.2 10 Sudeste 15 Sudeste 0 -- -- 67
2019-09-29 00:00:00 17 7 Sur 16 Sudeste 0 -- -- 62
2019-09-28 23:00:00 16.5 10 Sudeste 18 Sudeste 0 -- -- 67
2019-09-28 22:00:00 16.7 13 Sudeste 18 Sudeste 0 -- -- 67
2019-09-28 21:00:00 18.2 12 Sudeste 15 Sudeste 0 -- -- 62
2019-09-28 20:00:00 19.3 7 Sudeste 12 Sur 0 -- -- 58
2019-09-28 19:00:00 23 9 Sur 28 Sudeste 0 -- -- 43
2019-09-28 18:00:00 25 17 Sudeste 32 Sudeste 0 -- -- 42
2019-09-28 17:00:00 25.4 18 Sudeste 29 Sudeste 0 -- -- 43
2019-09-28 16:00:00 25.2 22 Sudeste 31 Sudeste 0 -- -- 44
2019-09-28 15:00:00 24.4 18 Sudeste 28 Sur 0 -- -- 49
2019-09-28 14:00:00 23.3 14 Sudeste 26 Sudeste 0 -- -- 49
2019-09-28 13:00:00 22.2 9 Este 15 Sudeste 0 -- -- 58
2019-09-28 12:00:00 19.6 6 Sudeste 10 Sur 0 -- -- 68
2019-09-28 11:00:00 17.6 3 Sur 7 Sudoeste 0 -- -- 74
2019-09-28 10:00:00 15 0 Calma 5 Norte 0 -- -- 87
2019-09-28 09:00:00 11.6 3 Norte 9 Noroeste 0 -- -- 95
2019-09-28 08:00:00 12.1 8 Noroeste 15 Noroeste 0 -- -- 94
2019-09-28 07:00:00 12.5 13 Noroeste 17 Noroeste 0 -- -- 94
2019-09-28 06:00:00 12.9 14 Noroeste 19 Noroeste 0 -- -- 94
2019-09-28 05:00:00 13.3 10 Noroeste 21 Noroeste 0 -- -- 93
2019-09-28 04:00:00 13.3 12 Noroeste 17 Noroeste 0 -- -- 93
2019-09-28 03:00:00 13.7 12 Noroeste 18 Noroeste 0 -- -- 90
2019-09-28 02:00:00 14 12 Noroeste 20 Noroeste 0 -- -- 88
2019-09-28 01:00:00 14 14 Noroeste 23 Noroeste 0 -- -- 89
2019-09-28 00:00:00 14.6 13 Noroeste 30 Noroeste 0 -- -- 89
2019-09-27 23:00:00 15.3 20 Noroeste 28 Noroeste 0 -- -- 87
2019-09-27 22:00:00 16.3 18 Noroeste 28 Noroeste 0 -- -- 82
2019-09-27 21:00:00 17.5 15 Noroeste 24 Norte 0 -- -- 75
2019-09-27 20:00:00 19.4 18 Norte 33 Norte 0 -- -- 67
2019-09-27 19:00:00 21.5 19 Norte 29 Norte 0 -- -- 60
2019-09-27 18:00:00 24.4 10 Noroeste 22 Noroeste 0 -- -- 41
2019-09-27 17:00:00 25.5 7 Oeste 25 Oeste 0 -- -- 37
2019-09-27 16:00:00 24.4 21 Noroeste 29 Noroeste 0 -- -- 41
2019-09-27 15:00:00 23.9 12 Noroeste 26 Oeste 0 -- -- 45
2019-09-27 14:00:00 22.8 13 Noroeste 23 Noroeste 0 -- -- 47
2019-09-27 13:00:00 22 14 Oeste 21 Oeste 0 -- -- 55
2019-09-27 12:00:00 20.1 8 Noroeste 15 Noroeste 0 -- -- 60
2019-09-27 11:00:00 16.7 6 Noroeste 10 Noroeste 0 -- -- 78
2019-09-27 10:00:00 13.9 0 Calma 8 Sudeste 0 -- -- 96
2019-09-27 09:00:00 11.3 5 Sudeste 9 Sudeste 0 -- -- 98
2019-09-27 08:00:00 11.8 3 Sudeste 6 Sudeste 0 -- -- 98
2019-09-27 07:00:00 11.9 0 Calma 11 Norte 0 -- -- 97
2019-09-27 06:00:00 11.5 0 Calma 5 Norte 0 -- -- 97
2019-09-27 05:00:00 11.2 4 Sudeste 12 Noroeste 0 -- -- 95
2019-09-27 04:00:00 12.3 10 Noroeste 12 Noroeste 0 -- -- 94
2019-09-27 03:00:00 12.2 10 Sudeste 11 Sudeste 0 -- -- 92
2019-09-27 02:00:00 13.1 5 Sudeste 8 Sudeste 0 -- -- 90
2019-09-27 01:00:00 13.7 4 Sudeste 9 Sudeste 0 -- -- 85
2019-09-27 00:00:00 14.7 2 Sudeste 5 Sudeste 0 -- -- 80
2019-09-26 23:00:00 16 4 Sudeste 9 Sudeste 0 -- -- 74
2019-09-26 22:00:00 17.3 4 Sudeste 10 Sudeste 0 -- -- 69
2019-09-26 21:00:00 18.7 8 Sudeste 13 Sudeste 0 -- -- 66
2019-09-26 20:00:00 20.2 10 Sudeste 13 Sur 0 -- -- 57
2019-09-26 19:00:00 23.4 4 Sudoeste 9 Sudoeste 0 -- -- 49
2019-09-26 18:00:00 26.4 6 Sudoeste 13 Oeste 0 -- -- 38
2019-09-26 17:00:00 26.4 9 Oeste 19 Oeste 0 -- -- 41
2019-09-26 16:00:00 25.1 6 Norte 12 Nordeste 0 -- -- 43
2019-09-26 15:00:00 25.5 5 Sudoeste 13 Sudoeste 0 -- -- 42
2019-09-26 14:00:00 23.8 10 Sur 17 Sur 0 -- -- 46
2019-09-26 13:00:00 22 10 Noroeste 15 Noroeste 0 -- -- 56
2019-09-26 12:00:00 21.1 5 Noroeste 10 Noroeste 0 -- -- 58
2019-09-26 11:00:00 18.8 3 Sudoeste 8 Sur 0 -- -- 67
2019-09-26 10:00:00 15.5 2 Sudeste 5 Este 0 -- -- 75
2019-09-26 09:00:00 11.8 3 Sudeste 9 Sudeste 0 -- -- 91
2019-09-26 08:00:00 10.5 2 Sudeste 10 Sudeste 0 -- -- 92
2019-09-26 07:00:00 10.3 8 Sudeste 10 Sudeste 0 -- -- 94
2019-09-26 06:00:00 10.2 9 Sudeste 11 Sudeste 0 -- -- 94
2019-09-26 05:00:00 10.8 6 Sudeste 8 Sudeste 0 -- -- 92
2019-09-26 04:00:00 11.2 6 Sudeste 8 Sudeste 0 -- -- 92
2019-09-26 03:00:00 12.3 6 Sudeste 8 Sudeste 0 -- -- 89
2019-09-26 02:00:00 13.4 5 Sudeste 7 Sudeste 0 -- -- 86
2019-09-26 01:00:00 14.6 4 Sudeste 10 Este 0 -- -- 81
2019-09-26 00:00:00 14.7 4 Norte 8 Noroeste 0 -- -- 79
2019-09-25 23:00:00 15.1 3 Noroeste 13 Norte 0 -- -- 76
2019-09-25 22:00:00 15.2 8 Noroeste 15 Noroeste 0 -- -- 76
2019-09-25 21:00:00 15.9 10 Noroeste 17 Noroeste 0 -- -- 72
2019-09-25 20:00:00 16.8 13 Norte 18 Norte 0 -- -- 66
2019-09-25 19:00:00 17.7 10 Norte 21 Noroeste 0 -- -- 61
2019-09-25 18:00:00 18 15 Norte 25 Noroeste 0 -- -- 60
2019-09-25 17:00:00 18.9 16 Norte 30 Noroeste 0 -- -- 58
2019-09-25 16:00:00 19.6 20 Noroeste 30 Noroeste 0 -- -- 54
2019-09-25 15:00:00 21.2 17 Oeste 33 Norte 0 -- -- 51
2019-09-25 14:00:00 19.4 17 Oeste 38 Noroeste 0 -- -- 55
2019-09-25 13:00:00 17.3 21 Noroeste 36 Noroeste 0 -- -- 61
2019-09-25 12:00:00 16.1 19 Noroeste 31 Noroeste 0 -- -- 66
2019-09-25 11:00:00 15.2 17 Noroeste 33 Noroeste 0 -- -- 69
2019-09-25 10:00:00 14.6 18 Noroeste 27 Noroeste 0 -- -- 71
2019-09-25 09:00:00 13.8 18 Noroeste 25 Noroeste 0 -- -- 75
2019-09-25 08:00:00 13.7 9 Noroeste 14 Noroeste 0 -- -- 78
2019-09-25 07:00:00 13.7 9 Noroeste 14 Noroeste 0 -- -- 78
2019-09-25 06:00:00 13.7 12 Noroeste 21 Noroeste 0 -- -- 77
2019-09-25 05:00:00 13.4 13 Noroeste 23 Noroeste 0 -- -- 81
2019-09-25 04:00:00 13.7 20 Noroeste 30 Noroeste 0 -- -- 81
2019-09-25 03:00:00 13.7 23 Noroeste 28 Noroeste 0 -- -- 82
2019-09-25 02:00:00 13.9 23 Noroeste 31 Noroeste 0 -- -- 82
2019-09-25 01:00:00 14.4 19 Noroeste 37 Noroeste 0 -- -- 82
2019-09-25 00:00:00 14.7 23 Noroeste 32 Noroeste 0 -- -- 81
2019-09-24 23:00:00 15 19 Noroeste 32 Noroeste 0 -- -- 79
2019-09-24 22:00:00 16 19 Noroeste 36 Oeste 0 -- -- 80
2019-09-24 21:00:00 17.1 24 Noroeste 45 Noroeste 0 -- -- 80
2019-09-24 20:00:00 19.4 18 Oeste 27 Noroeste 0 -- -- 73
2019-09-24 19:00:00 21.4 14 Noroeste 28 Noroeste 0 -- -- 62
2019-09-24 18:00:00 22.6 24 Noroeste 37 Noroeste 0 -- -- 56
2019-09-24 17:00:00 23.6 19 Noroeste 36 Oeste 0 -- -- 52
2019-09-24 16:00:00 25.7 14 Oeste 37 Oeste 0 -- -- 46
2019-09-24 15:00:00 25.4 12 Noroeste 25 Noroeste 0 -- -- 48
2019-09-24 14:00:00 24.4 6 Oeste 21 Sudoeste 0 -- -- 46
2019-09-24 13:00:00 22.7 12 Noroeste 18 Noroeste 0 -- -- 51
2019-09-24 12:00:00 22.5 6 Sur 17 Noroeste 0 -- -- 48
2019-09-24 11:00:00 19.1 13 Noroeste 16 Noroeste 0 -- -- 59
2019-09-24 10:00:00 18.9 5 Sudeste 9 Sudeste 0 -- -- 56
2019-09-24 09:00:00 15.7 5 Sudeste 12 Sudeste 0 -- -- 67
2019-09-24 08:00:00 15.4 6 Sur 14 Sudeste 0 -- -- 64
2019-09-24 07:00:00 13.9 9 Sudeste 15 Sur 0 -- -- 70
2019-09-24 06:00:00 14.6 9 Sur 23 Sudeste 0 -- -- 64
2019-09-24 05:00:00 14.5 11 Sudeste 23 Sudeste 0 -- -- 64
2019-09-24 04:00:00 14.7 4 Sur 16 Sur 0 -- -- 64
2019-09-24 03:00:00 15 10 Sur 17 Sur 0 -- -- 63
2019-09-24 02:00:00 15.7 12 Sur 17 Sur 0 -- -- 63
2019-09-24 01:00:00 15.7 7 Sudeste 11 Sudeste 0 -- -- 67
2019-09-24 00:00:00 14.8 8 Sudeste 15 Sudeste 0 -- -- 73
2019-09-23 23:00:00 14.3 12 Sudeste 15 Sudeste 0 -- -- 79
2019-09-23 22:00:00 15.3 9 Sudeste 10 Sudeste 0 -- -- 77
2019-09-23 21:00:00 16.4 5 Sudeste 10 Sur 0 -- -- 70
2019-09-23 20:00:00 18.5 3 Sur 9 Sudeste 0 -- -- 61
2019-09-23 19:00:00 20.1 7 Sudeste 12 Sudeste 0 -- -- 53
2019-09-23 18:00:00 21.1 6 Sudeste 18 Sudeste 0 -- -- 43
2019-09-23 17:00:00 20.9 12 Sur 22 Sudeste 0 -- -- 49
2019-09-23 16:00:00 21.7 6 Sudeste 21 Sudoeste 0 -- -- 44
2019-09-23 15:00:00 21 14 Sur 22 Sudoeste 0 -- -- 49
2019-09-23 14:00:00 19.6 11 Sudoeste 25 Sudoeste 0 -- -- 54
2019-09-23 13:00:00 18.7 3 Sudoeste 8 Norte 0 -- -- 63
2019-09-23 12:00:00 17.9 4 Noroeste 7 Noroeste 0 -- -- 70
2019-09-23 11:00:00 16.4 3 Sudeste 8 Sudeste 0 -- -- 75
2019-09-23 10:00:00 12.3 2 Este 7 Sudeste 0 -- -- 90
2019-09-23 09:00:00 9.8 4 Sudeste 8 Sudeste 0 -- -- 96
2019-09-23 08:00:00 8.9 5 Sudeste 9 Sudeste 0 -- -- 97
2019-09-23 07:00:00 9.1 7 Sudeste 10 Sudeste 0 -- -- 96
2019-09-23 06:00:00 9.3 5 Sudeste 7 Sudeste 0 -- -- 97
2019-09-23 05:00:00 9.5 6 Sudeste 8 Sudeste 0 -- -- 96
2019-09-23 04:00:00 9.6 4 Sudeste 5 Este 0 -- -- 95
2019-09-23 03:00:00 10.1 3 Sudeste 5 Sudeste 0 -- -- 94
2019-09-23 02:00:00 10.5 4 Sudeste 6 Sudeste 0 -- -- 94
2019-09-23 01:00:00 11.7 3 Noroeste 9 Sudeste 0 -- -- 92
2019-09-23 00:00:00 12.3 2 Noroeste 13 Noroeste 0 -- -- 89
2019-09-22 23:00:00 13.3 12 Noroeste 15 Norte 0 -- -- 87
2019-09-22 22:00:00 14.5 14 Noroeste 30 Noroeste 0 -- -- 82
2019-09-22 21:00:00 16 17 Noroeste 28 Noroeste 0 -- -- 73
2019-09-22 20:00:00 17.2 6 Noroeste 25 Noroeste 0 -- -- 58
2019-09-22 19:00:00 18.7 17 Noroeste 28 Noroeste 0 -- -- 51
2019-09-22 18:00:00 20.3 16 Noroeste 30 Noroeste 0 -- -- 49
2019-09-22 17:00:00 19.8 14 Noroeste 34 Noroeste 0 -- -- 54
2019-09-22 16:00:00 19.3 19 Noroeste 34 Oeste 0 -- -- 58
2019-09-22 15:00:00 20.7 7 Oeste 24 Noroeste 0 -- -- 58
2019-09-22 14:00:00 18.8 14 Noroeste 23 Oeste 0 -- -- 67
2019-09-22 13:00:00 18.1 16 Noroeste 22 Norte 0 -- -- 74
2019-09-22 12:00:00 17.8 12 Noroeste 32 Oeste 0 -- -- 75
2019-09-22 11:00:00 17.3 10 Oeste 27 Noroeste 0 -- -- 78
2019-09-22 10:00:00 15.7 6 Sudeste 51 Noroeste 3.6 -- -- 82
2019-09-22 09:00:00 16.7 21 Oeste 45 Oeste 1.6 -- -- 86
2019-09-22 08:00:00 17.9 23 Sur 38 Sur 0.2 -- -- 87
2019-09-22 07:00:00 17.7 27 Sur 46 Sur 0.8 -- -- 88
2019-09-22 06:00:00 17.5 28 Sur 45 Sur 1 -- -- 90
2019-09-22 05:00:00 18.3 26 Sudeste 35 Sur 0 -- -- 83
2019-09-22 04:00:00 18.7 24 Sudeste 34 Sudeste 0 -- -- 79
2019-09-22 03:00:00 18.7 18 Sudeste 30 Sudeste 0 -- -- 78
2019-09-22 02:00:00 18.8 25 Sudeste 40 Sudeste 0 -- -- 73
2019-09-22 01:00:00 18.5 22 Sudeste 33 Sudeste 0 -- -- 73
2019-09-22 00:00:00 19.3 26 Sudeste 38 Sudeste 0 -- -- 71